Terminal Aerodrome Forecast
Issued by NWS Denver/Boulder, CO

Home | Current Version | Previous Version | Text Only | Print | Product List | Glossary On
Versions: 1 2 3 4 5 6 7 8 9 10 11 12 13 14 15 16 17 18 19 20 21 22 23 24 25 26 27 28 29 30 31 32 33 34 35 36 37 38 39 40 41 42 43 44 45 46 47 48 49 50
000
FTUS45 KBOU 020028 AAA
TAFDEN
TAF AMD
KDEN 020028Z 0200/0306 07014G20KT P6SM VCSH SCT080 BKN120
     FM020100 09012KT P6SM FEW080 BKN120
     FM020130 18012G20KT P6SM FEW090 BKN150
     FM020300 17011KT P6SM SCT120
     FM020500 21010KT P6SM FEW120
     FM021600 28007KT P6SM FEW120
     FM021800 31007KT P6SM SCT120
     FM022100 VRB05KT P6SM FEW090 SCT120=

USA.gov is the U.S. government's official web portal to all federal, state and local government web resources and services.